Punta Galea, Euskadi

latitud = 43° 22' 30''N | longitud = 003° 01' 10''W
90 metros sobre el nivel del mar | datos mensuales

Fecha, hora, temperatura, viento dirección y velocidad, humedad y presión.

  • 25-09-2017 00:00:00 | 18.20°C | Noroeste |19.00 km/h | 95.00% | 1011.30 hPa
  • 24-09-2017 23:00:00 | 18.30°C | Noroeste |18.00 km/h | 96.00% | 1010.70 hPa
  • 24-09-2017 22:00:00 | 18.40°C | Noroeste |9.00 km/h | 95.00% | 1009.60 hPa
  • 24-09-2017 21:00:00 | 18.40°C | Noroeste |6.00 km/h | 95.00% | 1009.00 hPa
  • 24-09-2017 20:00:00 | 18.70°C | Noroeste |9.00 km/h | 95.00% | 1008.50 hPa
  • 24-09-2017 19:00:00 | 19.50°C | Noroeste |7.00 km/h | 93.00% | 1008.00 hPa
  • 24-09-2017 18:00:00 | 20.10°C | Nordeste |11.00 km/h | 91.00% | 1007.70 hPa
  • 24-09-2017 17:00:00 | 21.30°C | Nordeste |6.00 km/h | 89.00% | 1007.80 hPa
  • 24-09-2017 16:00:00 | 21.20°C | Norte |6.00 km/h | 88.00% | 1008.00 hPa
  • 24-09-2017 15:00:00 | 20.50°C | Nordeste |10.00 km/h | 88.00% | 1008.60 hPa
  • 24-09-2017 14:00:00 | 20.10°C | Noroeste |10.00 km/h | 87.00% | 1008.80 hPa
  • 24-09-2017 13:00:00 | 19.50°C | Norte |6.00 km/h | 82.00% | 1008.90 hPa
  • 24-09-2017 12:00:00 | 19.30°C | Nordeste |4.00 km/h | 80.00% | 1009.10 hPa
  • 24-09-2017 11:00:00 | 18.30°C | Norte |2.00 km/h | 83.00% | 1009.40 hPa
  • 24-09-2017 10:00:00 | 16.80°C | Sur |5.00 km/h | 92.00% | 1009.40 hPa
  • 24-09-2017 09:00:00 | 14.80°C | Sur |6.00 km/h | 95.00% | 1009.00 hPa
  • 24-09-2017 08:00:00 | 13.70°C | Calma |0.00 km/h | 95.00% | 1009.10 hPa
  • 24-09-2017 07:00:00 | 14.60°C | Sur |10.00 km/h | 95.00% | 1008.60 hPa
  • 24-09-2017 06:00:00 | 14.70°C | Sur |9.00 km/h | 95.00% | 1009.10 hPa
  • 24-09-2017 05:00:00 | 15.10°C | Sur |9.00 km/h | 94.00% | 1009.50 hPa
  • 24-09-2017 04:00:00 | 15.50°C | Sur |7.00 km/h | 94.00% | 1009.90 hPa
  • 24-09-2017 03:00:00 | 15.90°C | Sur |8.00 km/h | 92.00% | 1010.50 hPa
  • 24-09-2017 02:00:00 | 16.20°C | Sudeste |8.00 km/h | 92.00% | 1010.70 hPa
  • 24-09-2017 01:00:00 | 17.10°C | Sur |7.00 km/h | 86.00% | 1010.60 hPa